sensor_id;sensor_type;location;lat;lon;timestamp;pressure;altitude;pressure_sealevel;temperature;humidity
24962;BME280;12992;50.884;13.668;2022-08-01T00:01:33;97081.47;;;19.46;100.00
24962;BME280;12992;50.884;13.668;2022-08-01T00:03:59;97065.84;;;19.41;100.00
24962;BME280;12992;50.884;13.668;2022-08-01T00:06:24;97067.41;;;19.25;100.00
24962;BME280;12992;50.884;13.668;2022-08-01T00:08:50;97066.06;;;19.14;100.00
24962;BME280;12992;50.884;13.668;2022-08-01T00:11:15;97056.75;;;19.01;100.00
24962;BME280;12992;50.884;13.668;2022-08-01T00:13:40;97057.63;;;18.88;100.00
24962;BME280;12992;50.884;13.668;2022-08-01T00:16:06;97065.09;;;18.87;100.00
24962;BME280;12992;50.884;13.668;2022-08-01T00:18:31;97066.66;;;18.80;100.00
24962;BME280;12992;50.884;13.668;2022-08-01T00:20:57;97070.38;;;18.75;100.00
24962;BME280;12992;50.884;13.668;2022-08-01T00:23:22;97069.25;;;18.76;100.00
24962;BME280;12992;50.884;13.668;2022-08-01T00:25:47;97070.13;;;18.85;100.00
24962;BME280;12992;50.884;13.668;2022-08-01T00:28:13;97069.44;;;18.80;100.00
24962;BME280;12992;50.884;13.668;2022-08-01T00:30:38;97067.47;;;18.80;100.00
24962;BME280;12992;50.884;13.668;2022-08-01T00:33:04;97067.69;;;18.84;100.00
24962;BME280;12992;50.884;13.668;2022-08-01T00:35:29;97069.09;;;18.81;100.00
24962;BME280;12992;50.884;13.668;2022-08-01T00:37:55;97058.72;;;18.78;100.00
24962;BME280;12992;50.884;13.668;2022-08-01T00:40:20;97067.00;;;18.78;100.00
24962;BME280;12992;50.884;13.668;2022-08-01T00:42:46;97060.78;;;18.73;100.00
24962;BME280;12992;50.884;13.668;2022-08-01T00:45:12;97063.38;;;18.69;100.00
24962;BME280;12992;50.884;13.668;2022-08-01T00:47:37;97060.50;;;18.60;100.00
24962;BME280;12992;50.884;13.668;2022-08-01T00:50:04;97047.41;;;18.44;100.00
24962;BME280;12992;50.884;13.668;2022-08-01T00:52:29;97038.69;;;18.28;100.00
24962;BME280;12992;50.884;13.668;2022-08-01T00:54:55;97037.00;;;18.18;100.00
24962;BME280;12992;50.884;13.668;2022-08-01T00:57:20;97046.00;;;18.10;100.00
24962;BME280;12992;50.884;13.668;2022-08-01T00:59:45;97049.50;;;18.02;100.00
24962;BME280;12992;50.884;13.668;2022-08-01T01:02:11;97048.00;;;17.96;100.00
24962;BME280;12992;50.884;13.668;2022-08-01T01:04:36;97050.66;;;17.87;100.00
24962;BME280;12992;50.884;13.668;2022-08-01T01:07:17;97048.81;;;17.82;100.00
24962;BME280;12992;50.884;13.668;2022-08-01T01:09:55;97039.66;;;17.73;100.00
24962;BME280;12992;50.884;13.668;2022-08-01T01:12:37;97027.94;;;17.54;100.00
24962;BME280;12992;50.884;13.668;2022-08-01T01:15:10;97031.72;;;17.44;100.00
24962;BME280;12992;50.884;13.668;2022-08-01T01:20:37;97032.72;;;17.21;100.00
24962;BME280;12992;50.884;13.668;2022-08-01T01:23:15;97030.50;;;17.09;100.00
24962;BME280;12992;50.884;13.668;2022-08-01T01:26:09;97035.59;;;17.02;100.00
24962;BME280;12992;50.884;13.668;2022-08-01T01:31:23;97038.84;;;17.04;100.00
24962;BME280;12992;50.884;13.668;2022-08-01T01:33:51;97044.06;;;17.33;100.00
24962;BME280;12992;50.884;13.668;2022-08-01T01:36:19;97042.53;;;17.41;100.00
24962;BME280;12992;50.884;13.668;2022-08-01T01:38:46;97042.13;;;17.61;100.00
24962;BME280;12992;50.884;13.668;2022-08-01T01:41:15;97034.66;;;17.62;100.00
24962;BME280;12992;50.884;13.668;2022-08-01T01:43:43;97038.72;;;17.64;100.00
24962;BME280;12992;50.884;13.668;2022-08-01T01:46:11;97036.19;;;17.54;100.00
24962;BME280;12992;50.884;13.668;2022-08-01T01:48:38;97034.56;;;17.53;100.00
24962;BME280;12992;50.884;13.668;2022-08-01T01:51:05;97033.53;;;17.49;100.00
24962;BME280;12992;50.884;13.668;2022-08-01T01:53:32;97032.94;;;17.52;100.00
24962;BME280;12992;50.884;13.668;2022-08-01T01:55:58;97034.75;;;17.56;100.00
24962;BME280;12992;50.884;13.668;2022-08-01T01:58:27;97037.41;;;17.75;100.00
24962;BME280;12992;50.884;13.668;2022-08-01T02:00:55;97030.28;;;17.74;100.00
24962;BME280;12992;50.884;13.668;2022-08-01T02:03:22;97027.53;;;17.74;100.00
24962;BME280;12992;50.884;13.668;2022-08-01T02:05:50;97027.25;;;17.76;100.00
24962;BME280;12992;50.884;13.668;2022-08-01T02:08:17;97038.63;;;17.83;100.00
24962;BME280;12992;50.884;13.668;2022-08-01T02:10:44;97037.41;;;17.89;100.00
24962;BME280;12992;50.884;13.668;2022-08-01T02:13:32;97043.06;;;18.06;100.00
24962;BME280;12992;50.884;13.668;2022-08-01T02:15:58;97037.63;;;18.15;100.00
24962;BME280;12992;50.884;13.668;2022-08-01T02:18:23;97042.81;;;18.17;100.00
24962;BME280;12992;50.884;13.668;2022-08-01T02:20:51;97040.38;;;18.15;100.00
24962;BME280;12992;50.884;13.668;2022-08-01T02:23:18;97025.72;;;18.06;100.00
24962;BME280;12992;50.884;13.668;2022-08-01T02:25:49;97043.88;;;18.07;100.00
24962;BME280;12992;50.884;13.668;2022-08-01T02:28:19;97033.47;;;18.04;100.00
24962;BME280;12992;50.884;13.668;2022-08-01T02:30:50;97033.59;;;17.99;100.00
24962;BME280;12992;50.884;13.668;2022-08-01T02:33:21;97040.22;;;17.98;100.00
24962;BME280;12992;50.884;13.668;2022-08-01T02:35:52;97034.81;;;17.93;100.00
24962;BME280;12992;50.884;13.668;2022-08-01T02:38:22;97031.88;;;17.89;100.00
24962;BME280;12992;50.884;13.668;2022-08-01T02:40:50;97032.75;;;17.76;100.00
24962;BME280;12992;50.884;13.668;2022-08-01T02:43:20;97045.56;;;17.80;100.00
24962;BME280;12992;50.884;13.668;2022-08-01T02:45:53;97053.94;;;17.89;100.00
24962;BME280;12992;50.884;13.668;2022-08-01T02:48:20;97060.44;;;17.93;100.00
24962;BME280;12992;50.884;13.668;2022-08-01T02:50:48;97067.13;;;17.78;100.00
24962;BME280;12992;50.884;13.668;2022-08-01T02:53:16;97059.25;;;17.86;100.00
24962;BME280;12992;50.884;13.668;2022-08-01T02:55:43;97053.59;;;17.91;100.00
24962;BME280;12992;50.884;13.668;2022-08-01T02:58:12;97055.13;;;17.97;100.00
24962;BME280;12992;50.884;13.668;2022-08-01T03:00:39;97055.13;;;17.97;100.00
24962;BME280;12992;50.884;13.668;2022-08-01T03:03:07;97069.31;;;18.04;100.00
24962;BME280;12992;50.884;13.668;2022-08-01T03:05:34;97064.13;;;18.02;100.00
24962;BME280;12992;50.884;13.668;2022-08-01T03:08:01;97067.97;;;18.01;100.00
24962;BME280;12992;50.884;13.668;2022-08-01T03:10:28;97074.41;;;17.97;100.00
24962;BME280;12992;50.884;13.668;2022-08-01T03:12:55;97067.38;;;17.91;100.00
24962;BME280;12992;50.884;13.668;2022-08-01T03:15:23;97068.00;;;17.88;100.00
24962;BME280;12992;50.884;13.668;2022-08-01T03:17:49;97067.19;;;17.87;100.00
24962;BME280;12992;50.884;13.668;2022-08-01T03:20:17;97065.75;;;17.90;100.00
24962;BME280;12992;50.884;13.668;2022-08-01T03:22:44;97075.63;;;18.04;100.00
24962;BME280;12992;50.884;13.668;2022-08-01T03:25:12;97065.50;;;18.14;100.00
24962;BME280;12992;50.884;13.668;2022-08-01T03:27:39;97075.31;;;18.06;100.00
24962;BME280;12992;50.884;13.668;2022-08-01T03:30:06;97075.88;;;17.94;100.00
24962;BME280;12992;50.884;13.668;2022-08-01T03:32:31;97069.13;;;17.87;100.00
24962;BME280;12992;50.884;13.668;2022-08-01T03:34:57;97067.72;;;17.75;100.00
24962;BME280;12992;50.884;13.668;2022-08-01T03:37:25;97060.38;;;17.71;100.00
24962;BME280;12992;50.884;13.668;2022-08-01T03:39:58;97059.56;;;17.70;100.00
24962;BME280;12992;50.884;13.668;2022-08-01T03:42:29;97059.31;;;17.67;100.00
24962;BME280;12992;50.884;13.668;2022-08-01T03:45:01;97068.44;;;17.67;100.00
24962;BME280;12992;50.884;13.668;2022-08-01T03:47:32;97063.41;;;17.69;100.00
24962;BME280;12992;50.884;13.668;2022-08-01T03:50:00;97074.75;;;17.68;100.00
24962;BME280;12992;50.884;13.668;2022-08-01T03:52:27;97075.56;;;17.68;100.00
24962;BME280;12992;50.884;13.668;2022-08-01T03:54:56;97085.44;;;17.69;100.00
24962;BME280;12992;50.884;13.668;2022-08-01T03:57:23;97076.38;;;17.69;100.00
24962;BME280;12992;50.884;13.668;2022-08-01T03:59:51;97076.78;;;17.62;100.00
24962;BME280;12992;50.884;13.668;2022-08-01T04:02:17;97067.41;;;17.49;100.00
24962;BME280;12992;50.884;13.668;2022-08-01T04:04:43;97073.91;;;17.40;100.00
24962;BME280;12992;50.884;13.668;2022-08-01T04:07:29;97068.63;;;17.43;100.00
24962;BME280;12992;50.884;13.668;2022-08-01T04:09:55;97082.50;;;17.52;100.00
24962;BME280;12992;50.884;13.668;2022-08-01T04:12:21;97083.50;;;17.56;100.00
24962;BME280;12992;50.884;13.668;2022-08-01T04:14:47;97092.09;;;17.68;100.00
24962;BME280;12992;50.884;13.668;2022-08-01T04:17:12;97090.28;;;17.77;100.00
24962;BME280;12992;50.884;13.668;2022-08-01T04:19:38;97084.13;;;17.80;100.00
24962;BME280;12992;50.884;13.668;2022-08-01T04:22:04;97084.53;;;17.88;100.00
24962;BME280;12992;50.884;13.668;2022-08-01T04:24:32;97092.97;;;18.05;100.00
24962;BME280;12992;50.884;13.668;2022-08-01T04:27:00;97098.16;;;18.20;100.00
24962;BME280;12992;50.884;13.668;2022-08-01T04:29:27;97105.06;;;18.31;100.00
24962;BME280;12992;50.884;13.668;2022-08-01T04:31:56;97105.81;;;18.46;100.00
24962;BME280;12992;50.884;13.668;2022-08-01T04:34:25;97104.97;;;18.59;100.00
24962;BME280;12992;50.884;13.668;2022-08-01T04:36:55;97108.31;;;18.70;100.00
24962;BME280;12992;50.884;13.668;2022-08-01T04:39:23;97116.84;;;18.82;100.00
24962;BME280;12992;50.884;13.668;2022-08-01T04:41:54;97114.28;;;18.85;100.00
24962;BME280;12992;50.884;13.668;2022-08-01T04:44:22;97113.84;;;18.92;100.00
24962;BME280;12992;50.884;13.668;2022-08-01T04:46:48;97116.44;;;18.97;100.00
24962;BME280;12992;50.884;13.668;2022-08-01T04:49:14;97121.84;;;19.02;100.00
24962;BME280;12992;50.884;13.668;2022-08-01T04:51:55;97116.69;;;19.09;100.00
24962;BME280;12992;50.884;13.668;2022-08-01T04:54:29;97120.44;;;19.13;100.00
24962;BME280;12992;50.884;13.668;2022-08-01T04:56:55;97126.66;;;19.19;100.00
24962;BME280;12992;50.884;13.668;2022-08-01T04:59:25;97130.84;;;19.16;100.00
24962;BME280;12992;50.884;13.668;2022-08-01T05:02:18;97124.22;;;19.17;100.00
24962;BME280;12992;50.884;13.668;2022-08-01T05:04:45;97126.84;;;19.22;100.00
24962;BME280;12992;50.884;13.668;2022-08-01T05:07:11;97127.31;;;19.24;100.00
24962;BME280;12992;50.884;13.668;2022-08-01T05:09:38;97131.09;;;19.29;100.00
24962;BME280;12992;50.884;13.668;2022-08-01T05:12:04;97129.31;;;19.33;100.00
24962;BME280;12992;50.884;13.668;2022-08-01T05:14:31;97131.75;;;19.34;100.00
24962;BME280;12992;50.884;13.668;2022-08-01T05:17:00;97131.31;;;19.41;100.00
24962;BME280;12992;50.884;13.668;2022-08-01T05:19:29;97135.91;;;19.45;100.00
24962;BME280;12992;50.884;13.668;2022-08-01T05:21:54;97136.72;;;19.46;100.00
24962;BME280;12992;50.884;13.668;2022-08-01T05:24:19;97133.94;;;19.46;100.00
24962;BME280;12992;50.884;13.668;2022-08-01T05:26:44;97140.28;;;19.46;100.00
24962;BME280;12992;50.884;13.668;2022-08-01T05:29:10;97136.94;;;19.58;100.00
24962;BME280;12992;50.884;13.668;2022-08-01T05:31:35;97143.84;;;19.78;100.00
24962;BME280;12992;50.884;13.668;2022-08-01T05:34:01;97132.53;;;19.88;100.00
24962;BME280;12992;50.884;13.668;2022-08-01T05:36:27;97136.13;;;19.97;100.00
24962;BME280;12992;50.884;13.668;2022-08-01T05:38:52;97137.28;;;20.14;100.00
24962;BME280;12992;50.884;13.668;2022-08-01T05:41:17;97125.22;;;20.01;100.00
24962;BME280;12992;50.884;13.668;2022-08-01T05:43:43;97131.22;;;19.94;100.00
24962;BME280;12992;50.884;13.668;2022-08-01T05:46:08;97128.31;;;19.91;100.00
24962;BME280;12992;50.884;13.668;2022-08-01T05:48:33;97131.88;;;19.91;100.00
24962;BME280;12992;50.884;13.668;2022-08-01T05:50:59;97135.97;;;20.02;100.00
24962;BME280;12992;50.884;13.668;2022-08-01T05:53:24;97138.38;;;19.95;100.00
24962;BME280;12992;50.884;13.668;2022-08-01T05:55:50;97131.56;;;19.93;100.00
24962;BME280;12992;50.884;13.668;2022-08-01T05:58:15;97145.41;;;20.01;100.00
24962;BME280;12992;50.884;13.668;2022-08-01T06:00:40;97136.31;;;20.09;100.00
24962;BME280;12992;50.884;13.668;2022-08-01T06:03:05;97149.16;;;20.23;100.00
24962;BME280;12992;50.884;13.668;2022-08-01T06:05:31;97140.38;;;20.12;100.00
24962;BME280;12992;50.884;13.668;2022-08-01T06:07:56;97147.66;;;19.99;100.00
24962;BME280;12992;50.884;13.668;2022-08-01T06:10:23;97139.16;;;19.87;100.00
24962;BME280;12992;50.884;13.668;2022-08-01T06:12:48;97147.63;;;19.82;100.00
24962;BME280;12992;50.884;13.668;2022-08-01T06:15:14;97154.72;;;19.74;100.00
24962;BME280;12992;50.884;13.668;2022-08-01T06:17:39;97149.06;;;19.48;100.00
24962;BME280;12992;50.884;13.668;2022-08-01T06:20:07;97138.63;;;19.37;100.00
24962;BME280;12992;50.884;13.668;2022-08-01T06:22:32;97148.47;;;19.29;100.00
24962;BME280;12992;50.884;13.668;2022-08-01T06:24:58;97153.81;;;19.25;100.00
24962;BME280;12992;50.884;13.668;2022-08-01T06:27:23;97162.97;;;19.35;100.00
24962;BME280;12992;50.884;13.668;2022-08-01T06:29:51;97153.25;;;19.37;100.00
24962;BME280;12992;50.884;13.668;2022-08-01T06:32:19;97158.13;;;19.40;100.00
24962;BME280;12992;50.884;13.668;2022-08-01T06:34:44;97151.41;;;19.33;100.00
24962;BME280;12992;50.884;13.668;2022-08-01T06:37:09;97160.75;;;19.45;100.00
24962;BME280;12992;50.884;13.668;2022-08-01T06:39:35;97164.31;;;19.46;100.00
24962;BME280;12992;50.884;13.668;2022-08-01T06:42:00;97167.13;;;19.55;100.00
24962;BME280;12992;50.884;13.668;2022-08-01T06:44:25;97159.66;;;19.55;100.00
24962;BME280;12992;50.884;13.668;2022-08-01T06:46:51;97167.75;;;19.51;100.00
24962;BME280;12992;50.884;13.668;2022-08-01T06:49:16;97168.06;;;19.50;100.00
24962;BME280;12992;50.884;13.668;2022-08-01T06:51:41;97148.56;;;19.46;100.00
24962;BME280;12992;50.884;13.668;2022-08-01T06:54:07;97167.41;;;19.44;100.00
24962;BME280;12992;50.884;13.668;2022-08-01T06:56:32;97167.25;;;19.49;100.00
24962;BME280;12992;50.884;13.668;2022-08-01T06:59:00;97167.22;;;19.41;100.00
24962;BME280;12992;50.884;13.668;2022-08-01T07:01:27;97158.00;;;19.23;100.00
24962;BME280;12992;50.884;13.668;2022-08-01T07:03:53;97148.97;;;19.00;100.00
24962;BME280;12992;50.884;13.668;2022-08-01T07:06:18;97154.22;;;18.88;100.00
24962;BME280;12992;50.884;13.668;2022-08-01T07:08:44;97160.69;;;18.83;100.00
24962;BME280;12992;50.884;13.668;2022-08-01T07:11:09;97160.09;;;18.73;100.00
24962;BME280;12992;50.884;13.668;2022-08-01T07:13:34;97163.38;;;18.75;100.00
24962;BME280;12992;50.884;13.668;2022-08-01T07:16:00;97171.13;;;18.73;100.00
24962;BME280;12992;50.884;13.668;2022-08-01T07:18:25;97170.44;;;18.67;100.00
24962;BME280;12992;50.884;13.668;2022-08-01T07:20:50;97172.97;;;18.63;100.00
24962;BME280;12992;50.884;13.668;2022-08-01T07:23:16;97176.28;;;18.65;100.00
24962;BME280;12992;50.884;13.668;2022-08-01T07:25:41;97168.41;;;18.59;100.00
24962;BME280;12992;50.884;13.668;2022-08-01T07:28:07;97172.38;;;18.53;100.00
24962;BME280;12992;50.884;13.668;2022-08-01T07:30:32;97172.19;;;18.49;100.00
24962;BME280;12992;50.884;13.668;2022-08-01T07:32:58;97175.28;;;18.48;100.00
24962;BME280;12992;50.884;13.668;2022-08-01T07:35:23;97180.34;;;18.54;100.00
24962;BME280;12992;50.884;13.668;2022-08-01T07:37:48;97181.28;;;18.50;100.00
24962;BME280;12992;50.884;13.668;2022-08-01T07:40:14;97183.03;;;18.46;100.00
24962;BME280;12992;50.884;13.668;2022-08-01T07:42:39;97187.69;;;18.59;100.00
24962;BME280;12992;50.884;13.668;2022-08-01T07:45:09;97185.22;;;18.71;100.00
24962;BME280;12992;50.884;13.668;2022-08-01T07:47:34;97190.41;;;18.86;100.00
24962;BME280;12992;50.884;13.668;2022-08-01T07:50:00;97199.44;;;19.01;100.00
24962;BME280;12992;50.884;13.668;2022-08-01T07:52:26;97193.28;;;19.04;100.00
24962;BME280;12992;50.884;13.668;2022-08-01T07:54:52;97199.88;;;19.16;100.00
24962;BME280;12992;50.884;13.668;2022-08-01T07:57:17;97195.28;;;19.34;100.00
24962;BME280;12992;50.884;13.668;2022-08-01T07:59:42;97195.03;;;19.44;100.00
24962;BME280;12992;50.884;13.668;2022-08-01T08:02:08;97189.00;;;19.42;100.00
24962;BME280;12992;50.884;13.668;2022-08-01T08:04:33;97192.88;;;19.41;100.00
24962;BME280;12992;50.884;13.668;2022-08-01T08:06:58;97187.72;;;19.48;100.00
24962;BME280;12992;50.884;13.668;2022-08-01T08:09:24;97194.28;;;19.52;100.00
24962;BME280;12992;50.884;13.668;2022-08-01T08:11:49;97193.25;;;19.48;100.00
24962;BME280;12992;50.884;13.668;2022-08-01T08:14:16;97196.47;;;19.42;100.00
24962;BME280;12992;50.884;13.668;2022-08-01T08:16:42;97200.03;;;19.42;100.00
24962;BME280;12992;50.884;13.668;2022-08-01T08:19:08;97201.31;;;19.36;100.00
24962;BME280;12992;50.884;13.668;2022-08-01T08:21:33;97194.72;;;19.23;100.00
24962;BME280;12992;50.884;13.668;2022-08-01T08:23:58;97205.22;;;19.35;100.00
24962;BME280;12992;50.884;13.668;2022-08-01T08:26:42;97209.06;;;19.34;100.00
24962;BME280;12992;50.884;13.668;2022-08-01T08:29:08;97211.53;;;19.36;100.00
24962;BME280;12992;50.884;13.668;2022-08-01T08:31:33;97208.72;;;19.27;100.00
24962;BME280;12992;50.884;13.668;2022-08-01T08:33:58;97218.00;;;19.31;100.00
24962;BME280;12992;50.884;13.668;2022-08-01T08:36:24;97220.13;;;19.34;100.00
24962;BME280;12992;50.884;13.668;2022-08-01T08:38:49;97218.56;;;19.19;100.00
24962;BME280;12992;50.884;13.668;2022-08-01T08:41:15;97217.94;;;19.22;100.00
24962;BME280;12992;50.884;13.668;2022-08-01T08:43:40;97221.66;;;19.18;100.00
24962;BME280;12992;50.884;13.668;2022-08-01T08:46:07;97221.34;;;19.19;100.00
24962;BME280;12992;50.884;13.668;2022-08-01T08:48:34;97232.19;;;19.38;100.00
24962;BME280;12992;50.884;13.668;2022-08-01T08:51:00;97218.81;;;19.32;100.00
24962;BME280;12992;50.884;13.668;2022-08-01T08:53:27;97228.44;;;19.57;100.00
24962;BME280;12992;50.884;13.668;2022-08-01T08:55:54;97232.53;;;19.68;100.00
24962;BME280;12992;50.884;13.668;2022-08-01T08:58:21;97228.81;;;19.64;100.00
24962;BME280;12992;50.884;13.668;2022-08-01T09:00:47;97224.59;;;19.66;100.00
24962;BME280;12992;50.884;13.668;2022-08-01T09:03:12;97232.78;;;19.80;100.00
24962;BME280;12992;50.884;13.668;2022-08-01T09:05:38;97235.19;;;19.73;100.00
24962;BME280;12992;50.884;13.668;2022-08-01T09:08:06;97223.19;;;19.55;100.00
24962;BME280;12992;50.884;13.668;2022-08-01T09:10:32;97221.78;;;19.35;100.00
24962;BME280;12992;50.884;13.668;2022-08-01T09:13:07;97221.28;;;19.11;100.00
24962;BME280;12992;50.884;13.668;2022-08-01T09:15:44;97219.50;;;18.92;100.00
24962;BME280;12992;50.884;13.668;2022-08-01T09:18:33;97229.72;;;18.92;100.00
24962;BME280;12992;50.884;13.668;2022-08-01T09:23:34;97242.78;;;19.22;100.00
24962;BME280;12992;50.884;13.668;2022-08-01T09:26:00;97246.97;;;19.42;100.00
24962;BME280;12992;50.884;13.668;2022-08-01T09:28:29;97251.06;;;19.67;100.00
24962;BME280;12992;50.884;13.668;2022-08-01T09:30:58;97257.59;;;20.02;100.00
24962;BME280;12992;50.884;13.668;2022-08-01T09:33:24;97257.16;;;20.57;100.00
24962;BME280;12992;50.884;13.668;2022-08-01T09:35:56;97256.41;;;20.91;100.00
24962;BME280;12992;50.884;13.668;2022-08-01T09:38:26;97248.59;;;21.28;100.00
24962;BME280;12992;50.884;13.668;2022-08-01T09:40:57;97251.59;;;21.96;100.00
24962;BME280;12992;50.884;13.668;2022-08-01T09:43:27;97236.25;;;21.90;100.00
24962;BME280;12992;50.884;13.668;2022-08-01T09:45:55;97234.09;;;21.23;100.00
24962;BME280;12992;50.884;13.668;2022-08-01T09:48:21;97230.03;;;20.77;100.00
24962;BME280;12992;50.884;13.668;2022-08-01T09:50:51;97238.63;;;20.67;100.00
24962;BME280;12992;50.884;13.668;2022-08-01T09:53:17;97255.44;;;21.57;100.00
24962;BME280;12992;50.884;13.668;2022-08-01T09:55:42;97246.13;;;22.55;100.00
24962;BME280;12992;50.884;13.668;2022-08-01T09:58:09;97252.63;;;23.51;100.00
24962;BME280;12992;50.884;13.668;2022-08-01T10:00:36;97244.44;;;24.00;100.00
24962;BME280;12992;50.884;13.668;2022-08-01T10:03:21;97236.59;;;24.75;100.00
24962;BME280;12992;50.884;13.668;2022-08-01T10:05:47;97235.91;;;25.59;99.36
24962;BME280;12992;50.884;13.668;2022-08-01T10:08:21;97226.94;;;26.09;97.28
24962;BME280;12992;50.884;13.668;2022-08-01T10:11:11;97213.44;;;24.99;95.63
24962;BME280;12992;50.884;13.668;2022-08-01T10:13:36;97214.88;;;24.08;100.00
24962;BME280;12992;50.884;13.668;2022-08-01T10:16:03;97213.94;;;23.91;100.00
24962;BME280;12992;50.884;13.668;2022-08-01T10:18:32;97221.81;;;24.01;100.00
24962;BME280;12992;50.884;13.668;2022-08-01T10:20:59;97231.97;;;24.43;100.00
24962;BME280;12992;50.884;13.668;2022-08-01T10:23:26;97241.59;;;26.69;96.09
24962;BME280;12992;50.884;13.668;2022-08-01T10:25:53;97227.22;;;28.45;88.14
24962;BME280;12992;50.884;13.668;2022-08-01T10:28:21;97218.50;;;27.23;85.46
24962;BME280;12992;50.884;13.668;2022-08-01T10:30:47;97216.72;;;27.15;87.97
24962;BME280;12992;50.884;13.668;2022-08-01T10:33:13;97226.19;;;28.30;80.64
24962;BME280;12992;50.884;13.668;2022-08-01T10:35:40;97220.81;;;28.97;78.45
24962;BME280;12992;50.884;13.668;2022-08-01T10:38:06;97208.22;;;28.58;78.11
24962;BME280;12992;50.884;13.668;2022-08-01T10:40:31;97224.50;;;29.01;80.43
24962;BME280;12992;50.884;13.668;2022-08-01T10:42:57;97201.47;;;28.62;75.74
24962;BME280;12992;50.884;13.668;2022-08-01T10:45:23;97216.47;;;29.30;77.97
24962;BME280;12992;50.884;13.668;2022-08-01T10:51:04;97222.16;;;29.37;76.13
24962;BME280;12992;50.884;13.668;2022-08-01T10:53:30;97194.44;;;29.99;71.90
24962;BME280;12992;50.884;13.668;2022-08-01T10:56:02;97199.56;;;28.20;76.69
24962;BME280;12992;50.884;13.668;2022-08-01T10:58:36;97203.03;;;26.59;81.24
24962;BME280;12992;50.884;13.668;2022-08-01T11:01:31;97216.19;;;24.35;92.36
24962;BME280;12992;50.884;13.668;2022-08-01T11:09:03;97214.25;;;22.31;100.00
24962;BME280;12992;50.884;13.668;2022-08-01T11:16:38;97220.88;;;22.48;100.00
24962;BME280;12992;50.884;13.668;2022-08-01T11:19:05;97217.75;;;22.70;100.00
24962;BME280;12992;50.884;13.668;2022-08-01T11:27:29;97226.97;;;24.24;97.90
24962;BME280;12992;50.884;13.668;2022-08-01T11:32:49;97215.13;;;25.28;87.55
24962;BME280;12992;50.884;13.668;2022-08-01T11:35:15;97210.59;;;24.71;87.71
24962;BME280;12992;50.884;13.668;2022-08-01T11:37:41;97209.00;;;24.46;89.75
24962;BME280;12992;50.884;13.668;2022-08-01T11:40:20;97216.19;;;24.35;93.19
24962;BME280;12992;50.884;13.668;2022-08-01T11:42:49;97218.00;;;24.92;91.43
24962;BME280;12992;50.884;13.668;2022-08-01T11:45:15;97225.63;;;25.19;89.86
24962;BME280;12992;50.884;13.668;2022-08-01T11:47:50;97211.94;;;25.42;87.31
24962;BME280;12992;50.884;13.668;2022-08-01T11:52:59;97232.00;;;26.51;86.99
24962;BME280;12992;50.884;13.668;2022-08-01T11:55:24;97240.69;;;27.55;83.53
24962;BME280;12992;50.884;13.668;2022-08-01T11:57:58;97207.88;;;27.71;80.31
24962;BME280;12992;50.884;13.668;2022-08-01T12:00:24;97220.06;;;27.63;79.54
24962;BME280;12992;50.884;13.668;2022-08-01T12:03:06;97218.34;;;27.16;81.55
24962;BME280;12992;50.884;13.668;2022-08-01T12:05:33;97205.50;;;26.13;84.68
24962;BME280;12992;50.884;13.668;2022-08-01T12:08:00;97219.19;;;26.50;83.86
24962;BME280;12992;50.884;13.668;2022-08-01T12:10:28;97208.00;;;26.50;81.29
24962;BME280;12992;50.884;13.668;2022-08-01T12:13:01;97198.97;;;25.78;84.86
24962;BME280;12992;50.884;13.668;2022-08-01T12:15:30;97194.91;;;25.31;87.33
24962;BME280;12992;50.884;13.668;2022-08-01T12:17:58;97223.31;;;25.93;87.58
24962;BME280;12992;50.884;13.668;2022-08-01T12:20:31;97230.69;;;27.92;81.25
24962;BME280;12992;50.884;13.668;2022-08-01T12:23:00;97230.31;;;29.16;76.01
24962;BME280;12992;50.884;13.668;2022-08-01T12:25:26;97224.16;;;30.99;72.27
24962;BME280;12992;50.884;13.668;2022-08-01T12:27:52;97226.50;;;31.56;68.76
24962;BME280;12992;50.884;13.668;2022-08-01T12:30:21;97226.66;;;33.20;64.96
24962;BME280;12992;50.884;13.668;2022-08-01T12:32:49;97216.44;;;33.69;62.65
24962;BME280;12992;50.884;13.668;2022-08-01T12:35:17;97212.13;;;34.16;61.33
24962;BME280;12992;50.884;13.668;2022-08-01T12:37:45;97199.59;;;31.69;64.02
24962;BME280;12992;50.884;13.668;2022-08-01T12:40:24;97207.13;;;29.19;69.87
24962;BME280;12992;50.884;13.668;2022-08-01T12:42:57;97182.34;;;27.96;73.39
24962;BME280;12992;50.884;13.668;2022-08-01T12:45:30;97207.53;;;26.99;81.90
24962;BME280;12992;50.884;13.668;2022-08-01T12:47:58;97194.25;;;26.10;87.09
24962;BME280;12992;50.884;13.668;2022-08-01T12:50:29;97185.00;;;25.34;90.49
24962;BME280;12992;50.884;13.668;2022-08-01T12:52:55;97204.59;;;26.25;93.09
24962;BME280;12992;50.884;13.668;2022-08-01T12:55:23;97195.69;;;26.19;92.80
24962;BME280;12992;50.884;13.668;2022-08-01T12:58:02;97197.41;;;26.40;87.25
24962;BME280;12992;50.884;13.668;2022-08-01T13:00:28;97206.50;;;27.03;85.02
24962;BME280;12992;50.884;13.668;2022-08-01T13:03:15;97201.69;;;28.27;76.75
24962;BME280;12992;50.884;13.668;2022-08-01T13:08:18;97186.31;;;28.40;74.89
24962;BME280;12992;50.884;13.668;2022-08-01T13:10:44;97195.97;;;27.16;78.84
24962;BME280;12992;50.884;13.668;2022-08-01T13:13:10;97180.66;;;26.75;78.58
24962;BME280;12992;50.884;13.668;2022-08-01T13:15:40;97201.88;;;27.30;78.12
24962;BME280;12992;50.884;13.668;2022-08-01T13:18:25;97200.56;;;27.47;78.10
24962;BME280;12992;50.884;13.668;2022-08-01T13:21:07;97215.81;;;28.34;75.91
24962;BME280;12992;50.884;13.668;2022-08-01T13:23:33;97206.16;;;29.08;73.51